Cimarron, Colorado
Current Conditions -  °F | °C
As of 9:53 PM on Monday 22 Dec 2014 (Local Time) from KMTJ Reporting Station
Overcast Overcast  
Wind Chill: 26°   Ceiling: 8000
Heat Index: 32°   Visibility: 10mi
Dew Point: 25°   Wind: 7mph
Humidity: 75%   Direction: 340°NNW
Pressure: 29.97"   Gusts: NA
Location:  38.44°N, 107.56°W
Report Text: KMTJ 230453Z AUTO 34006KT 10SM SCT070 BKN080 OVC110 00/M04 A2997 RMK AO2 SLP139 T00001039
Loading
Personal Weather Stations






























Interactive Weather Map New forecast layout! Learn more

10-Day Weather Forecast

Advertisements
Track Severe Weather on mobile